sensor_id;sensor_type;location;lat;lon;timestamp;temperature;humidity
27633;DHT22;15046;50.930;13.334;2023-11-19T00:00:31;3.40;99.90
27633;DHT22;15046;50.930;13.334;2023-11-19T00:02:57;3.40;99.90
27633;DHT22;15046;50.930;13.334;2023-11-19T00:05:23;3.40;99.90
27633;DHT22;15046;50.930;13.334;2023-11-19T00:07:48;3.40;99.90
27633;DHT22;15046;50.930;13.334;2023-11-19T00:10:16;3.40;99.90
27633;DHT22;15046;50.930;13.334;2023-11-19T00:12:46;3.40;99.90
27633;DHT22;15046;50.930;13.334;2023-11-19T00:15:13;3.40;99.90
27633;DHT22;15046;50.930;13.334;2023-11-19T00:17:39;3.40;99.90
27633;DHT22;15046;50.930;13.334;2023-11-19T00:20:06;3.40;99.90
27633;DHT22;15046;50.930;13.334;2023-11-19T00:22:33;3.40;99.90
27633;DHT22;15046;50.930;13.334;2023-11-19T00:24:59;3.50;99.90
27633;DHT22;15046;50.930;13.334;2023-11-19T00:27:25;3.50;99.90
27633;DHT22;15046;50.930;13.334;2023-11-19T00:29:51;3.50;99.90
27633;DHT22;15046;50.930;13.334;2023-11-19T00:32:17;3.50;99.90
27633;DHT22;15046;50.930;13.334;2023-11-19T00:34:45;3.50;99.90
27633;DHT22;15046;50.930;13.334;2023-11-19T00:37:13;3.60;99.90
27633;DHT22;15046;50.930;13.334;2023-11-19T00:39:43;3.60;99.90
27633;DHT22;15046;50.930;13.334;2023-11-19T00:42:09;3.60;99.90
27633;DHT22;15046;50.930;13.334;2023-11-19T00:44:39;3.60;99.90
27633;DHT22;15046;50.930;13.334;2023-11-19T00:47:05;3.70;99.90
27633;DHT22;15046;50.930;13.334;2023-11-19T00:49:31;3.70;99.90
27633;DHT22;15046;50.930;13.334;2023-11-19T00:51:58;3.70;99.90
27633;DHT22;15046;50.930;13.334;2023-11-19T00:54:24;3.70;99.90
27633;DHT22;15046;50.930;13.334;2023-11-19T00:56:54;3.70;99.90
27633;DHT22;15046;50.930;13.334;2023-11-19T00:59:20;3.80;99.90
27633;DHT22;15046;50.930;13.334;2023-11-19T01:01:46;3.80;99.90
27633;DHT22;15046;50.930;13.334;2023-11-19T01:04:16;3.80;99.90
27633;DHT22;15046;50.930;13.334;2023-11-19T01:06:42;3.80;99.90
27633;DHT22;15046;50.930;13.334;2023-11-19T01:09:08;3.80;99.90
27633;DHT22;15046;50.930;13.334;2023-11-19T01:11:34;3.80;99.90
27633;DHT22;15046;50.930;13.334;2023-11-19T01:14:00;3.80;99.90
27633;DHT22;15046;50.930;13.334;2023-11-19T01:16:26;3.80;99.90
27633;DHT22;15046;50.930;13.334;2023-11-19T01:18:52;3.80;99.90
27633;DHT22;15046;50.930;13.334;2023-11-19T01:21:18;3.90;99.90
27633;DHT22;15046;50.930;13.334;2023-11-19T01:23:44;3.90;99.90
27633;DHT22;15046;50.930;13.334;2023-11-19T01:26:11;3.90;99.90
27633;DHT22;15046;50.930;13.334;2023-11-19T01:28:41;3.90;99.90
27633;DHT22;15046;50.930;13.334;2023-11-19T01:31:15;3.90;99.90
27633;DHT22;15046;50.930;13.334;2023-11-19T01:33:41;3.90;99.90
27633;DHT22;15046;50.930;13.334;2023-11-19T01:36:07;3.90;99.90
27633;DHT22;15046;50.930;13.334;2023-11-19T01:38:34;4.00;99.90
27633;DHT22;15046;50.930;13.334;2023-11-19T01:41:00;4.00;99.90
27633;DHT22;15046;50.930;13.334;2023-11-19T01:43:37;4.00;99.90
27633;DHT22;15046;50.930;13.334;2023-11-19T01:46:05;4.00;99.90
27633;DHT22;15046;50.930;13.334;2023-11-19T01:48:34;4.10;99.90
27633;DHT22;15046;50.930;13.334;2023-11-19T01:51:05;4.10;99.90
27633;DHT22;15046;50.930;13.334;2023-11-19T01:53:34;4.10;99.90
27633;DHT22;15046;50.930;13.334;2023-11-19T01:56:01;4.10;99.90
27633;DHT22;15046;50.930;13.334;2023-11-19T01:58:27;4.20;99.90
27633;DHT22;15046;50.930;13.334;2023-11-19T02:00:55;4.20;99.90
27633;DHT22;15046;50.930;13.334;2023-11-19T02:03:21;4.20;99.90
27633;DHT22;15046;50.930;13.334;2023-11-19T02:05:48;4.20;99.90
27633;DHT22;15046;50.930;13.334;2023-11-19T02:08:16;4.30;99.90
27633;DHT22;15046;50.930;13.334;2023-11-19T02:10:42;4.30;99.90
27633;DHT22;15046;50.930;13.334;2023-11-19T02:13:08;4.30;99.90
27633;DHT22;15046;50.930;13.334;2023-11-19T02:15:35;4.30;99.90
27633;DHT22;15046;50.930;13.334;2023-11-19T02:18:20;4.30;99.90
27633;DHT22;15046;50.930;13.334;2023-11-19T02:20:51;4.40;99.90
27633;DHT22;15046;50.930;13.334;2023-11-19T02:23:18;4.30;99.90
27633;DHT22;15046;50.930;13.334;2023-11-19T02:25:49;4.30;99.90
27633;DHT22;15046;50.930;13.334;2023-11-19T02:28:17;4.30;99.90
27633;DHT22;15046;50.930;13.334;2023-11-19T02:30:43;4.30;99.90
27633;DHT22;15046;50.930;13.334;2023-11-19T02:33:09;4.30;99.90
27633;DHT22;15046;50.930;13.334;2023-11-19T02:35:35;4.30;99.90
27633;DHT22;15046;50.930;13.334;2023-11-19T02:38:01;4.30;99.90
27633;DHT22;15046;50.930;13.334;2023-11-19T02:40:29;4.30;99.90
27633;DHT22;15046;50.930;13.334;2023-11-19T02:42:55;4.30;99.90
27633;DHT22;15046;50.930;13.334;2023-11-19T02:45:23;4.20;99.90
27633;DHT22;15046;50.930;13.334;2023-11-19T02:47:49;4.20;99.90
27633;DHT22;15046;50.930;13.334;2023-11-19T02:50:16;4.20;99.90
27633;DHT22;15046;50.930;13.334;2023-11-19T02:52:42;4.20;99.90
27633;DHT22;15046;50.930;13.334;2023-11-19T02:55:10;4.20;99.90
27633;DHT22;15046;50.930;13.334;2023-11-19T02:57:38;4.20;99.90
27633;DHT22;15046;50.930;13.334;2023-11-19T03:00:19;4.20;99.90
27633;DHT22;15046;50.930;13.334;2023-11-19T03:02:49;4.20;99.90
27633;DHT22;15046;50.930;13.334;2023-11-19T03:05:24;4.20;99.90
27633;DHT22;15046;50.930;13.334;2023-11-19T03:07:50;4.20;99.90
27633;DHT22;15046;50.930;13.334;2023-11-19T03:10:16;4.20;99.90
27633;DHT22;15046;50.930;13.334;2023-11-19T03:12:43;4.20;99.90
27633;DHT22;15046;50.930;13.334;2023-11-19T03:15:09;4.30;99.90
27633;DHT22;15046;50.930;13.334;2023-11-19T03:17:39;4.30;99.90
27633;DHT22;15046;50.930;13.334;2023-11-19T03:20:06;4.30;99.90
27633;DHT22;15046;50.930;13.334;2023-11-19T03:22:32;4.20;99.90
27633;DHT22;15046;50.930;13.334;2023-11-19T03:24:59;4.20;99.90
27633;DHT22;15046;50.930;13.334;2023-11-19T03:27:25;4.30;99.90
27633;DHT22;15046;50.930;13.334;2023-11-19T03:29:51;4.20;99.90
27633;DHT22;15046;50.930;13.334;2023-11-19T03:32:17;4.30;99.90
27633;DHT22;15046;50.930;13.334;2023-11-19T03:34:42;4.30;99.90
27633;DHT22;15046;50.930;13.334;2023-11-19T03:37:08;4.30;99.90
27633;DHT22;15046;50.930;13.334;2023-11-19T03:39:34;4.30;99.90
27633;DHT22;15046;50.930;13.334;2023-11-19T03:42:00;4.30;99.90
27633;DHT22;15046;50.930;13.334;2023-11-19T03:44:27;4.30;99.90
27633;DHT22;15046;50.930;13.334;2023-11-19T03:46:52;4.30;99.90
27633;DHT22;15046;50.930;13.334;2023-11-19T03:49:18;4.30;99.90
27633;DHT22;15046;50.930;13.334;2023-11-19T03:51:44;4.30;99.90
27633;DHT22;15046;50.930;13.334;2023-11-19T03:54:10;4.30;99.90
27633;DHT22;15046;50.930;13.334;2023-11-19T03:56:37;4.30;99.90
27633;DHT22;15046;50.930;13.334;2023-11-19T03:59:03;4.40;99.90
27633;DHT22;15046;50.930;13.334;2023-11-19T04:01:29;4.40;99.90
27633;DHT22;15046;50.930;13.334;2023-11-19T04:03:54;4.40;99.90
27633;DHT22;15046;50.930;13.334;2023-11-19T04:06:21;4.40;99.90
27633;DHT22;15046;50.930;13.334;2023-11-19T04:08:47;4.40;99.90
27633;DHT22;15046;50.930;13.334;2023-11-19T04:11:13;4.50;99.90
27633;DHT22;15046;50.930;13.334;2023-11-19T04:13:38;4.50;99.90
27633;DHT22;15046;50.930;13.334;2023-11-19T04:16:04;4.50;99.90
27633;DHT22;15046;50.930;13.334;2023-11-19T04:18:30;4.50;99.90
27633;DHT22;15046;50.930;13.334;2023-11-19T04:20:57;4.50;99.90
27633;DHT22;15046;50.930;13.334;2023-11-19T04:23:24;4.50;99.90
27633;DHT22;15046;50.930;13.334;2023-11-19T04:25:50;4.50;99.90
27633;DHT22;15046;50.930;13.334;2023-11-19T04:28:16;4.60;99.90
27633;DHT22;15046;50.930;13.334;2023-11-19T04:30:43;4.60;99.90
27633;DHT22;15046;50.930;13.334;2023-11-19T04:33:09;4.60;99.90
27633;DHT22;15046;50.930;13.334;2023-11-19T04:35:35;4.60;99.90
27633;DHT22;15046;50.930;13.334;2023-11-19T04:38:02;4.60;99.90
27633;DHT22;15046;50.930;13.334;2023-11-19T04:40:27;4.60;99.90
27633;DHT22;15046;50.930;13.334;2023-11-19T04:42:53;4.60;99.90
27633;DHT22;15046;50.930;13.334;2023-11-19T04:45:19;4.60;99.90
27633;DHT22;15046;50.930;13.334;2023-11-19T04:47:45;4.60;99.90
27633;DHT22;15046;50.930;13.334;2023-11-19T04:50:11;4.70;99.90
27633;DHT22;15046;50.930;13.334;2023-11-19T04:52:38;4.70;99.90
27633;DHT22;15046;50.930;13.334;2023-11-19T04:55:10;4.70;99.90
27633;DHT22;15046;50.930;13.334;2023-11-19T04:57:40;4.80;99.90
27633;DHT22;15046;50.930;13.334;2023-11-19T05:00:06;4.80;99.90
27633;DHT22;15046;50.930;13.334;2023-11-19T05:02:34;4.80;99.90
27633;DHT22;15046;50.930;13.334;2023-11-19T05:05:00;4.80;99.90
27633;DHT22;15046;50.930;13.334;2023-11-19T05:07:26;4.80;99.90
27633;DHT22;15046;50.930;13.334;2023-11-19T05:09:52;4.90;99.90
27633;DHT22;15046;50.930;13.334;2023-11-19T05:12:18;4.80;99.90
27633;DHT22;15046;50.930;13.334;2023-11-19T05:14:44;4.90;99.90
27633;DHT22;15046;50.930;13.334;2023-11-19T05:17:15;4.90;99.90
27633;DHT22;15046;50.930;13.334;2023-11-19T05:19:40;4.90;99.90
27633;DHT22;15046;50.930;13.334;2023-11-19T05:22:06;5.00;99.90
27633;DHT22;15046;50.930;13.334;2023-11-19T05:24:33;5.00;99.90
27633;DHT22;15046;50.930;13.334;2023-11-19T05:26:59;5.00;99.90
27633;DHT22;15046;50.930;13.334;2023-11-19T05:29:24;5.00;99.90
27633;DHT22;15046;50.930;13.334;2023-11-19T05:31:50;5.00;99.90
27633;DHT22;15046;50.930;13.334;2023-11-19T05:34:16;5.10;99.90
27633;DHT22;15046;50.930;13.334;2023-11-19T05:36:42;5.10;99.90
27633;DHT22;15046;50.930;13.334;2023-11-19T05:39:07;5.10;99.90
27633;DHT22;15046;50.930;13.334;2023-11-19T05:41:34;5.10;99.90
27633;DHT22;15046;50.930;13.334;2023-11-19T05:43:59;5.10;99.90
27633;DHT22;15046;50.930;13.334;2023-11-19T05:46:25;5.20;99.90
27633;DHT22;15046;50.930;13.334;2023-11-19T05:48:52;5.10;99.90
27633;DHT22;15046;50.930;13.334;2023-11-19T05:51:18;5.20;99.90
27633;DHT22;15046;50.930;13.334;2023-11-19T05:53:44;5.30;99.90
27633;DHT22;15046;50.930;13.334;2023-11-19T05:56:11;5.30;99.90
27633;DHT22;15046;50.930;13.334;2023-11-19T05:58:37;5.40;99.90
27633;DHT22;15046;50.930;13.334;2023-11-19T06:01:05;5.50;99.90
27633;DHT22;15046;50.930;13.334;2023-11-19T06:03:32;5.60;99.90
27633;DHT22;15046;50.930;13.334;2023-11-19T06:05:58;5.60;99.90
27633;DHT22;15046;50.930;13.334;2023-11-19T06:08:24;5.70;99.90
27633;DHT22;15046;50.930;13.334;2023-11-19T06:10:52;5.70;99.90
27633;DHT22;15046;50.930;13.334;2023-11-19T06:13:18;5.70;99.90
27633;DHT22;15046;50.930;13.334;2023-11-19T06:15:45;5.80;99.90
27633;DHT22;15046;50.930;13.334;2023-11-19T06:18:11;5.90;99.90
27633;DHT22;15046;50.930;13.334;2023-11-19T06:20:41;5.90;99.90
27633;DHT22;15046;50.930;13.334;2023-11-19T06:23:06;5.90;99.90
27633;DHT22;15046;50.930;13.334;2023-11-19T06:25:32;6.00;99.90
27633;DHT22;15046;50.930;13.334;2023-11-19T06:27:58;6.00;99.90
27633;DHT22;15046;50.930;13.334;2023-11-19T06:30:24;6.10;99.90
27633;DHT22;15046;50.930;13.334;2023-11-19T06:32:51;6.10;99.90
27633;DHT22;15046;50.930;13.334;2023-11-19T06:35:17;6.20;99.90
27633;DHT22;15046;50.930;13.334;2023-11-19T06:37:42;6.20;99.90
27633;DHT22;15046;50.930;13.334;2023-11-19T06:40:09;6.30;99.90
27633;DHT22;15046;50.930;13.334;2023-11-19T06:42:35;6.30;99.90
27633;DHT22;15046;50.930;13.334;2023-11-19T06:45:02;6.30;99.90
27633;DHT22;15046;50.930;13.334;2023-11-19T06:47:28;6.40;99.90
27633;DHT22;15046;50.930;13.334;2023-11-19T06:49:54;6.40;99.90
27633;DHT22;15046;50.930;13.334;2023-11-19T06:52:20;6.50;99.90
27633;DHT22;15046;50.930;13.334;2023-11-19T06:54:46;6.50;99.90
27633;DHT22;15046;50.930;13.334;2023-11-19T06:57:13;6.50;99.90
27633;DHT22;15046;50.930;13.334;2023-11-19T06:59:39;6.60;99.90
27633;DHT22;15046;50.930;13.334;2023-11-19T07:02:05;6.60;99.90
27633;DHT22;15046;50.930;13.334;2023-11-19T07:04:32;6.70;99.90
27633;DHT22;15046;50.930;13.334;2023-11-19T07:06:59;6.70;99.90
27633;DHT22;15046;50.930;13.334;2023-11-19T07:09:25;6.80;99.90
27633;DHT22;15046;50.930;13.334;2023-11-19T07:11:51;6.80;99.90
27633;DHT22;15046;50.930;13.334;2023-11-19T07:14:20;6.80;99.90
27633;DHT22;15046;50.930;13.334;2023-11-19T07:16:46;6.80;99.90
27633;DHT22;15046;50.930;13.334;2023-11-19T07:19:11;6.90;99.90
27633;DHT22;15046;50.930;13.334;2023-11-19T07:21:41;6.90;99.90
27633;DHT22;15046;50.930;13.334;2023-11-19T07:24:10;7.00;99.90
27633;DHT22;15046;50.930;13.334;2023-11-19T07:26:42;7.00;99.90
27633;DHT22;15046;50.930;13.334;2023-11-19T07:29:08;7.00;99.90
27633;DHT22;15046;50.930;13.334;2023-11-19T07:31:34;7.10;99.90
27633;DHT22;15046;50.930;13.334;2023-11-19T07:33:59;7.20;99.90
27633;DHT22;15046;50.930;13.334;2023-11-19T07:36:25;7.20;99.90
27633;DHT22;15046;50.930;13.334;2023-11-19T07:38:51;7.20;99.90
27633;DHT22;15046;50.930;13.334;2023-11-19T07:41:16;7.30;99.90
27633;DHT22;15046;50.930;13.334;2023-11-19T07:43:45;7.40;99.90
27633;DHT22;15046;50.930;13.334;2023-11-19T07:46:16;7.40;99.90
27633;DHT22;15046;50.930;13.334;2023-11-19T07:48:41;7.40;99.90
27633;DHT22;15046;50.930;13.334;2023-11-19T07:51:08;7.50;99.90
27633;DHT22;15046;50.930;13.334;2023-11-19T07:53:34;7.50;99.90
27633;DHT22;15046;50.930;13.334;2023-11-19T07:56:00;7.50;99.90
27633;DHT22;15046;50.930;13.334;2023-11-19T07:58:26;7.60;99.90
27633;DHT22;15046;50.930;13.334;2023-11-19T08:00:52;7.60;99.90
27633;DHT22;15046;50.930;13.334;2023-11-19T08:03:18;7.60;99.90
27633;DHT22;15046;50.930;13.334;2023-11-19T08:05:47;7.70;99.90
27633;DHT22;15046;50.930;13.334;2023-11-19T08:08:13;7.70;99.90
27633;DHT22;15046;50.930;13.334;2023-11-19T08:10:39;7.70;99.90
27633;DHT22;15046;50.930;13.334;2023-11-19T08:13:05;7.80;99.90
27633;DHT22;15046;50.930;13.334;2023-11-19T08:15:31;7.80;99.90
27633;DHT22;15046;50.930;13.334;2023-11-19T08:17:57;7.90;99.90
27633;DHT22;15046;50.930;13.334;2023-11-19T08:20:23;7.90;99.90
27633;DHT22;15046;50.930;13.334;2023-11-19T08:22:49;7.90;99.90
27633;DHT22;15046;50.930;13.334;2023-11-19T08:25:15;7.90;99.90
27633;DHT22;15046;50.930;13.334;2023-11-19T08:27:41;8.00;99.90
27633;DHT22;15046;50.930;13.334;2023-11-19T08:30:07;8.00;99.90
27633;DHT22;15046;50.930;13.334;2023-11-19T08:32:33;8.00;99.90
27633;DHT22;15046;50.930;13.334;2023-11-19T08:34:59;7.90;99.90
27633;DHT22;15046;50.930;13.334;2023-11-19T08:37:25;8.00;99.90
27633;DHT22;15046;50.930;13.334;2023-11-19T08:39:51;8.00;99.90
27633;DHT22;15046;50.930;13.334;2023-11-19T08:42:17;8.00;99.90
27633;DHT22;15046;50.930;13.334;2023-11-19T08:44:43;8.10;99.90
27633;DHT22;15046;50.930;13.334;2023-11-19T08:47:12;8.20;99.90
27633;DHT22;15046;50.930;13.334;2023-11-19T08:49:39;8.20;99.90
27633;DHT22;15046;50.930;13.334;2023-11-19T08:52:05;8.10;99.90
27633;DHT22;15046;50.930;13.334;2023-11-19T08:54:34;8.20;99.90
27633;DHT22;15046;50.930;13.334;2023-11-19T08:57:00;8.20;99.90
27633;DHT22;15046;50.930;13.334;2023-11-19T08:59:26;8.20;99.90
27633;DHT22;15046;50.930;13.334;2023-11-19T09:01:51;8.20;99.90
27633;DHT22;15046;50.930;13.334;2023-11-19T09:04:17;8.20;99.90
27633;DHT22;15046;50.930;13.334;2023-11-19T09:06:43;8.20;99.90
27633;DHT22;15046;50.930;13.334;2023-11-19T09:09:09;8.20;99.90
27633;DHT22;15046;50.930;13.334;2023-11-19T09:11:35;8.30;99.90
27633;DHT22;15046;50.930;13.334;2023-11-19T09:14:05;8.40;99.90
27633;DHT22;15046;50.930;13.334;2023-11-19T09:16:31;8.50;99.90
27633;DHT22;15046;50.930;13.334;2023-11-19T09:18:57;8.60;99.90
27633;DHT22;15046;50.930;13.334;2023-11-19T09:21:27;8.70;99.90
27633;DHT22;15046;50.930;13.334;2023-11-19T09:23:55;8.80;99.90
27633;DHT22;15046;50.930;13.334;2023-11-19T09:26:21;8.80;99.90
27633;DHT22;15046;50.930;13.334;2023-11-19T09:28:47;8.80;99.90
27633;DHT22;15046;50.930;13.334;2023-11-19T09:31:16;8.80;99.90
27633;DHT22;15046;50.930;13.334;2023-11-19T09:33:43;8.80;99.90
27633;DHT22;15046;50.930;13.334;2023-11-19T09:36:09;8.80;99.90
27633;DHT22;15046;50.930;13.334;2023-11-19T09:38:37;8.80;99.90
27633;DHT22;15046;50.930;13.334;2023-11-19T09:41:06;8.80;99.90
27633;DHT22;15046;50.930;13.334;2023-11-19T09:43:37;8.80;99.90
27633;DHT22;15046;50.930;13.334;2023-11-19T09:46:07;8.90;99.90
27633;DHT22;15046;50.930;13.334;2023-11-19T09:48:37;8.80;99.90
27633;DHT22;15046;50.930;13.334;2023-11-19T09:51:04;8.90;99.90
27633;DHT22;15046;50.930;13.334;2023-11-19T09:53:31;8.90;99.90
27633;DHT22;15046;50.930;13.334;2023-11-19T09:56:03;9.00;99.90
27633;DHT22;15046;50.930;13.334;2023-11-19T09:58:30;9.10;99.90
27633;DHT22;15046;50.930;13.334;2023-11-19T10:00:57;9.10;99.90
27633;DHT22;15046;50.930;13.334;2023-11-19T10:03:27;9.20;99.90
27633;DHT22;15046;50.930;13.334;2023-11-19T10:05:55;9.30;99.90
27633;DHT22;15046;50.930;13.334;2023-11-19T10:08:22;9.20;99.90
27633;DHT22;15046;50.930;13.334;2023-11-19T10:10:48;9.30;99.90
27633;DHT22;15046;50.930;13.334;2023-11-19T10:13:14;9.30;99.90
27633;DHT22;15046;50.930;13.334;2023-11-19T10:15:40;9.40;99.90
27633;DHT22;15046;50.930;13.334;2023-11-19T10:18:07;9.40;99.90
27633;DHT22;15046;50.930;13.334;2023-11-19T10:20:36;9.40;99.90
27633;DHT22;15046;50.930;13.334;2023-11-19T10:23:02;9.50;99.90
27633;DHT22;15046;50.930;13.334;2023-11-19T10:25:29;9.60;99.90
27633;DHT22;15046;50.930;13.334;2023-11-19T10:27:56;9.60;99.90
27633;DHT22;15046;50.930;13.334;2023-11-19T10:30:24;9.70;99.90
27633;DHT22;15046;50.930;13.334;2023-11-19T10:33:08;9.70;99.90
27633;DHT22;15046;50.930;13.334;2023-11-19T10:35:35;9.80;99.90
27633;DHT22;15046;50.930;13.334;2023-11-19T10:38:13;9.90;99.90
27633;DHT22;15046;50.930;13.334;2023-11-19T10:40:41;9.90;99.90
27633;DHT22;15046;50.930;13.334;2023-11-19T10:43:08;9.90;99.90
27633;DHT22;15046;50.930;13.334;2023-11-19T10:45:35;9.90;99.90
27633;DHT22;15046;50.930;13.334;2023-11-19T10:48:02;9.90;99.90
27633;DHT22;15046;50.930;13.334;2023-11-19T10:50:36;9.90;99.90
27633;DHT22;15046;50.930;13.334;2023-11-19T10:53:04;10.00;99.90
27633;DHT22;15046;50.930;13.334;2023-11-19T10:55:34;10.00;99.90
27633;DHT22;15046;50.930;13.334;2023-11-19T10:58:02;10.10;99.90
27633;DHT22;15046;50.930;13.334;2023-11-19T11:00:30;10.10;99.90
27633;DHT22;15046;50.930;13.334;2023-11-19T11:03:01;10.10;99.90
27633;DHT22;15046;50.930;13.334;2023-11-19T11:05:31;10.10;99.90
27633;DHT22;15046;50.930;13.334;2023-11-19T11:08:00;10.10;99.90
27633;DHT22;15046;50.930;13.334;2023-11-19T11:10:28;10.00;99.90
27633;DHT22;15046;50.930;13.334;2023-11-19T11:12:59;10.00;99.90
27633;DHT22;15046;50.930;13.334;2023-11-19T11:15:29;10.00;99.90
27633;DHT22;15046;50.930;13.334;2023-11-19T11:18:00;10.10;99.90
27633;DHT22;15046;50.930;13.334;2023-11-19T11:20:33;10.20;99.90
27633;DHT22;15046;50.930;13.334;2023-11-19T11:31:27;10.30;99.90
27633;DHT22;15046;50.930;13.334;2023-11-19T11:36:49;10.90;99.90
27633;DHT22;15046;50.930;13.334;2023-11-19T11:39:21;11.00;99.90
27633;DHT22;15046;50.930;13.334;2023-11-19T11:41:47;11.10;99.90
27633;DHT22;15046;50.930;13.334;2023-11-19T11:50:15;11.00;99.90
27633;DHT22;15046;50.930;13.334;2023-11-19T11:55:36;14.70;99.90
27633;DHT22;15046;50.930;13.334;2023-11-19T11:58:08;15.50;99.90
27633;DHT22;15046;50.930;13.334;2023-11-19T12:00:39;14.60;99.90
27633;DHT22;15046;50.930;13.334;2023-11-19T12:03:07;14.40;99.90
27633;DHT22;15046;50.930;13.334;2023-11-19T12:05:34;15.80;99.90
27633;DHT22;15046;50.930;13.334;2023-11-19T12:08:05;17.40;99.90
27633;DHT22;15046;50.930;13.334;2023-11-19T12:10:37;18.40;99.90
27633;DHT22;15046;50.930;13.334;2023-11-19T12:13:06;19.10;99.90
27633;DHT22;15046;50.930;13.334;2023-11-19T12:15:33;19.40;99.30
27633;DHT22;15046;50.930;13.334;2023-11-19T12:17:58;19.70;97.40
27633;DHT22;15046;50.930;13.334;2023-11-19T12:20:26;19.90;96.10
27633;DHT22;15046;50.930;13.334;2023-11-19T12:22:53;20.20;94.60
27633;DHT22;15046;50.930;13.334;2023-11-19T12:25:20;20.40;93.30
27633;DHT22;15046;50.930;13.334;2023-11-19T12:27:50;20.40;92.80
27633;DHT22;15046;50.930;13.334;2023-11-19T12:30:23;20.60;91.70
27633;DHT22;15046;50.930;13.334;2023-11-19T12:32:50;20.50;90.90
27633;DHT22;15046;50.930;13.334;2023-11-19T12:35:16;20.60;90.80
27633;DHT22;15046;50.930;13.334;2023-11-19T12:37:42;20.60;90.30
27633;DHT22;15046;50.930;13.334;2023-11-19T12:40:15;20.50;90.00
27633;DHT22;15046;50.930;13.334;2023-11-19T12:42:44;20.20;88.60
27633;DHT22;15046;50.930;13.334;2023-11-19T12:45:10;20.20;89.30
27633;DHT22;15046;50.930;13.334;2023-11-19T12:47:39;20.30;88.20
27633;DHT22;15046;50.930;13.334;2023-11-19T12:50:07;20.20;88.40
27633;DHT22;15046;50.930;13.334;2023-11-19T12:52:34;19.90;87.50
27633;DHT22;15046;50.930;13.334;2023-11-19T12:55:00;19.80;87.60
27633;DHT22;15046;50.930;13.334;2023-11-19T12:57:40;19.50;87.60
27633;DHT22;15046;50.930;13.334;2023-11-19T13:00:07;19.60;85.80
27633;DHT22;15046;50.930;13.334;2023-11-19T13:02:49;19.60;87.50
27633;DHT22;15046;50.930;13.334;2023-11-19T13:05:32;19.30;85.90
27633;DHT22;15046;50.930;13.334;2023-11-19T13:08:08;18.00;86.40
27633;DHT22;15046;50.930;13.334;2023-11-19T13:10:54;16.60;88.80
27633;DHT22;15046;50.930;13.334;2023-11-19T13:13:20;15.40;90.30
27633;DHT22;15046;50.930;13.334;2023-11-19T13:15:46;14.70;91.60
27633;DHT22;15046;50.930;13.334;2023-11-19T13:18:13;14.20;92.40
27633;DHT22;15046;50.930;13.334;2023-11-19T13:20:41;13.70;92.90
27633;DHT22;15046;50.930;13.334;2023-11-19T13:23:07;13.70;93.10
27633;DHT22;15046;50.930;13.334;2023-11-19T13:25:33;14.10;93.00
27633;DHT22;15046;50.930;13.334;2023-11-19T13:27:59;14.10;93.00
27633;DHT22;15046;50.930;13.334;2023-11-19T13:30:26;13.80;93.10
27633;DHT22;15046;50.930;13.334;2023-11-19T13:32:52;13.60;93.30
27633;DHT22;15046;50.930;13.334;2023-11-19T13:35:21;14.30;93.90
27633;DHT22;15046;50.930;13.334;2023-11-19T13:37:49;15.20;93.80
27633;DHT22;15046;50.930;13.334;2023-11-19T13:40:39;16.00;93.00
27633;DHT22;15046;50.930;13.334;2023-11-19T13:43:05;16.10;92.50
27633;DHT22;15046;50.930;13.334;2023-11-19T13:45:31;15.60;92.30
27633;DHT22;15046;50.930;13.334;2023-11-19T13:47:57;14.90;92.50
27633;DHT22;15046;50.930;13.334;2023-11-19T13:50:23;14.10;93.10
27633;DHT22;15046;50.930;13.334;2023-11-19T13:52:49;13.50;93.80
27633;DHT22;15046;50.930;13.334;2023-11-19T13:55:15;13.10;94.40
27633;DHT22;15046;50.930;13.334;2023-11-19T13:57:41;12.80;94.70
27633;DHT22;15046;50.930;13.334;2023-11-19T14:00:09;12.50;95.10
27633;DHT22;15046;50.930;13.334;2023-11-19T14:02:39;12.30;95.60
27633;DHT22;15046;50.930;13.334;2023-11-19T14:05:06;12.10;96.00
27633;DHT22;15046;50.930;13.334;2023-11-19T14:07:33;11.90;96.20
27633;DHT22;15046;50.930;13.334;2023-11-19T14:09:59;11.70;96.50
27633;DHT22;15046;50.930;13.334;2023-11-19T14:12:25;11.60;97.00
27633;DHT22;15046;50.930;13.334;2023-11-19T14:14:51;11.50;97.30
27633;DHT22;15046;50.930;13.334;2023-11-19T14:17:17;11.40;97.60
27633;DHT22;15046;50.930;13.334;2023-11-19T14:19:44;11.40;98.10
27633;DHT22;15046;50.930;13.334;2023-11-19T14:22:10;11.30;98.30
27633;DHT22;15046;50.930;13.334;2023-11-19T14:24:37;11.20;98.70
27633;DHT22;15046;50.930;13.334;2023-11-19T14:27:03;11.20;99.20
27633;DHT22;15046;50.930;13.334;2023-11-19T14:29:29;11.10;99.80
27633;DHT22;15046;50.930;13.334;2023-11-19T14:31:56;11.10;99.90
27633;DHT22;15046;50.930;13.334;2023-11-19T14:34:22;11.10;99.90
27633;DHT22;15046;50.930;13.334;2023-11-19T14:36:48;11.00;99.90
27633;DHT22;15046;50.930;13.334;2023-11-19T14:39:15;10.90;99.90
27633;DHT22;15046;50.930;13.334;2023-11-19T14:41:43;10.90;99.90
27633;DHT22;15046;50.930;13.334;2023-11-19T14:44:10;10.90;99.90
27633;DHT22;15046;50.930;13.334;2023-11-19T14:46:36;10.80;99.90
27633;DHT22;15046;50.930;13.334;2023-11-19T14:49:02;10.80;99.90
27633;DHT22;15046;50.930;13.334;2023-11-19T14:51:29;10.70;99.90
27633;DHT22;15046;50.930;13.334;2023-11-19T14:53:55;10.70;99.90
27633;DHT22;15046;50.930;13.334;2023-11-19T14:56:21;10.60;99.90
27633;DHT22;15046;50.930;13.334;2023-11-19T14:58:47;10.60;99.90
27633;DHT22;15046;50.930;13.334;2023-11-19T15:01:16;10.50;99.90
27633;DHT22;15046;50.930;13.334;2023-11-19T15:03:42;10.40;99.90
27633;DHT22;15046;50.930;13.334;2023-11-19T15:06:07;10.40;99.90
27633;DHT22;15046;50.930;13.334;2023-11-19T15:08:33;10.30;99.90
27633;DHT22;15046;50.930;13.334;2023-11-19T15:10:59;10.20;99.90
27633;DHT22;15046;50.930;13.334;2023-11-19T15:13:27;10.20;99.90
27633;DHT22;15046;50.930;13.334;2023-11-19T15:15:53;10.10;99.90
27633;DHT22;15046;50.930;13.334;2023-11-19T15:18:20;10.10;99.90
27633;DHT22;15046;50.930;13.334;2023-11-19T15:20:46;10.00;99.90
27633;DHT22;15046;50.930;13.334;2023-11-19T15:23:13;10.00;99.90
27633;DHT22;15046;50.930;13.334;2023-11-19T15:25:39;10.00;99.90
27633;DHT22;15046;50.930;13.334;2023-11-19T15:28:05;10.00;99.90
27633;DHT22;15046;50.930;13.334;2023-11-19T15:30:31;9.90;99.90
27633;DHT22;15046;50.930;13.334;2023-11-19T15:32:56;9.90;99.90
27633;DHT22;15046;50.930;13.334;2023-11-19T15:35:22;9.90;99.90
27633;DHT22;15046;50.930;13.334;2023-11-19T15:37:48;9.90;99.90
27633;DHT22;15046;50.930;13.334;2023-11-19T15:40:15;9.90;99.90
27633;DHT22;15046;50.930;13.334;2023-11-19T15:42:41;9.90;99.90
27633;DHT22;15046;50.930;13.334;2023-11-19T15:45:08;9.90;99.90
27633;DHT22;15046;50.930;13.334;2023-11-19T15:47:35;9.90;99.90